Time;durP1;ratioP1;P1;durP2;ratioP2;P2;SDS_P1;SDS_P2;PMS_P1;PMS_P2;Temp;Humidity;BMP_temperature;BMP_pressure;BME280_temperature;BME280_humidity;BME280_pressure;Samples;Min_cycle;Max_cycle;Signal;HPM_P1;HPM_P2
2023/09/02 00:00:24;;;;;;;5.78;2.47;;;13.10;99.90;;;;;;10550816;28;20381;-84
2023/09/02 00:05:45;;;;;;;3.40;2.00;;;13.00;70.10;;;;;;10536499;28;20205;-79
2023/09/02 00:11:07;;;;;;;3.28;2.40;;;13.00;71.40;;;;;;10550209;28;20299;-80
2023/09/02 00:16:28;;;;;;;2.20;2.00;;;13.00;60.20;;;;;;10535691;28;20293;-88
2023/09/02 00:21:49;;;;;;;3.15;1.98;;;13.00;84.80;;;;;;10566101;28;20265;-86
2023/09/02 00:27:10;;;;;;;2.53;2.00;;;12.90;93.60;;;;;;10550337;28;20201;-87
2023/09/02 00:32:33;;;;;;;3.10;2.05;;;12.90;96.80;;;;;;10563649;28;20217;-79
2023/09/02 00:37:54;;;;;;;4.28;2.03;;;12.90;84.50;;;;;;10548672;28;20230;-80
2023/09/02 00:43:16;;;;;;;4.25;2.38;;;12.90;60.20;;;;;;10548672;28;20432;-79
2023/09/02 00:48:37;;;;;;;5.60;2.30;;;12.90;80.00;;;;;;10562174;28;20241;-80
2023/09/02 00:53:59;;;;;;;2.55;1.90;;;12.80;91.80;;;;;;10534016;28;20397;-80
2023/09/02 00:59:20;;;;;;;7.40;2.03;;;12.80;79.60;;;;;;10548049;28;20193;-79
2023/09/02 01:04:42;;;;;;;5.13;3.65;;;12.80;91.00;;;;;;10562416;28;20367;-80
2023/09/02 01:16:02;;;;;;;4.00;3.03;;;12.80;74.50;;;;;;10561752;28;20217;-78
2023/09/02 01:22:05;;;;;;;3.60;2.33;;;12.80;77.80;;;;;;10533259;28;20205;-78
2023/09/02 01:34:47;;;;;;;5.23;2.40;;;12.70;68.50;;;;;;10562247;28;20197;-78
2023/09/02 01:40:11;;;;;;;2.65;2.00;;;12.70;99.70;;;;;;10527335;28;20434;-79
2023/09/02 01:52:27;;;;;;;2.63;2.30;;;12.70;99.20;;;;;;10477097;28;20239;-79
2023/09/02 01:57:49;;;;;;;2.67;2.43;;;12.70;99.90;;;;;;10462887;28;20215;-79
2023/09/02 02:03:15;;;;;;;3.47;2.50;;;12.70;99.90;;;;;;10491972;28;20224;-82
2023/09/02 02:08:45;;;;;;;5.28;2.40;;;12.70;99.90;;;;;;10463233;28;20203;-81
2023/09/02 02:14:07;;;;;;;8.87;2.93;;;12.70;99.90;;;;;;10463022;28;20245;-79
2023/09/02 02:19:28;;;;;;;3.38;2.22;;;12.80;99.90;;;;;;10462776;28;20210;-79
2023/09/02 02:24:49;;;;;;;3.13;2.23;;;12.80;99.90;;;;;;10467453;28;20195;-80
2023/09/02 02:30:10;;;;;;;3.78;2.50;;;12.80;99.90;;;;;;10490986;28;20552;-79
2023/09/02 02:35:32;;;;;;;3.37;2.40;;;12.80;99.90;;;;;;10476706;28;20230;-82
2023/09/02 02:40:53;;;;;;;3.80;2.20;;;12.80;99.90;;;;;;10476508;28;20203;-81
2023/09/02 02:46:14;;;;;;;2.27;2.03;;;12.70;99.90;;;;;;10476431;28;20276;-81
2023/09/02 02:51:35;;;;;;;2.87;1.97;;;12.70;99.90;;;;;;10547727;28;20408;-80
2023/09/02 03:04:05;;;;;;;3.97;2.30;;;12.60;99.90;;;;;;10473832;28;20206;-83
2023/09/02 03:09:27;;;;;;;4.27;2.43;;;12.60;99.90;;;;;;10477376;28;20276;-85
2023/09/02 03:20:54;;;;;;;4.47;2.53;;;12.50;99.90;;;;;;10468338;28;20199;-86
2023/09/02 03:26:42;;;;;;;3.93;2.20;;;12.50;99.90;;;;;;10382345;28;20381;-86
2023/09/02 03:39:12;;;;;;;5.33;2.37;;;12.50;99.90;;;;;;10339775;28;20198;-82
2023/09/02 03:44:33;;;;;;;3.97;2.60;;;12.40;99.90;;;;;;10319019;28;20240;-79
2023/09/02 03:49:55;;;;;;;4.13;2.10;;;12.50;99.90;;;;;;10365105;28;20271;-79
2023/09/02 03:55:17;;;;;;;2.40;2.20;;;12.40;99.90;;;;;;10448083;28;20210;-80
2023/09/02 04:00:38;;;;;;;5.80;3.10;;;12.40;99.90;;;;;;10464888;28;20206;-79
2023/09/02 04:12:43;;;;;;;4.50;2.50;;;12.40;99.90;;;;;;10565653;28;20225;-83
2023/09/02 04:18:05;;;;;;;3.43;2.53;;;12.30;99.90;;;;;;10549673;28;20196;-80
2023/09/02 04:23:26;;;;;;;4.63;2.73;;;12.40;99.90;;;;;;10535241;28;20224;-81
2023/09/02 04:28:49;;;;;;;4.60;2.78;;;12.40;99.90;;;;;;10564079;28;20194;-80
2023/09/02 04:34:13;;;;;;;2.90;2.27;;;12.40;99.90;;;;;;10549294;28;20233;-82
2023/09/02 04:39:34;;;;;;;2.87;2.57;;;12.40;99.90;;;;;;10548936;28;20258;-84
2023/09/02 04:44:56;;;;;;;4.07;2.83;;;12.40;99.90;;;;;;10549042;28;20200;-82
2023/09/02 04:50:17;;;;;;;3.03;2.57;;;12.40;99.90;;;;;;10547932;28;20241;-80
2023/09/02 04:55:39;;;;;;;3.23;2.43;;;12.40;99.90;;;;;;10548541;28;20204;-80
2023/09/02 05:01:11;;;;;;;6.63;3.20;;;12.40;99.90;;;;;;10548924;28;20190;-83
2023/09/02 05:06:40;;;;;;;5.60;3.30;;;12.50;99.90;;;;;;10534648;28;20205;-81
2023/09/02 05:12:03;;;;;;;5.23;2.63;;;12.50;99.90;;;;;;10533820;28;20272;-80
2023/09/02 05:17:24;;;;;;;3.87;2.20;;;12.60;99.90;;;;;;10562364;28;20192;-81
2023/09/02 05:22:46;;;;;;;3.70;3.00;;;12.70;99.90;;;;;;10549300;28;20198;-80
2023/09/02 05:28:07;;;;;;;3.43;2.80;;;12.80;99.90;;;;;;10548361;28;20254;-84
2023/09/02 05:44:10;;;;;;;3.30;2.77;;;13.10;99.90;;;;;;10561906;28;20200;-83
2023/09/02 05:49:36;;;;;;;3.30;2.77;;;13.20;99.90;;;;;;10546889;28;20233;-89
2023/09/02 05:54:57;;;;;;;4.23;2.73;;;13.30;99.90;;;;;;10562355;28;20558;-87
2023/09/02 06:00:20;;;;;;;6.15;2.83;;;13.50;99.90;;;;;;10561476;28;20207;-82
2023/09/02 06:05:41;;;;;;;4.60;2.50;;;13.70;89.10;;;;;;10561261;28;20456;-81
2023/09/02 06:11:03;;;;;;;4.47;3.33;;;13.90;61.80;;;;;;10560969;28;20230;-86
2023/09/02 06:16:24;;;;;;;4.88;3.35;;;14.10;17.30;;;;;;10546543;28;20249;-88
2023/09/02 06:21:45;;;;;;;5.32;3.50;;;14.30;1.00;;;;;;10560760;28;20208;-87
2023/09/02 06:27:07;;;;;;;3.20;2.67;;;14.50;1.00;;;;;;10546488;28;20206;-87
2023/09/02 06:37:49;;;;;;;3.75;2.85;;;15.70;99.90;;;;;;10560515;28;20212;-88
2023/09/02 06:43:11;;;;;;;4.30;2.78;;;16.40;1.00;;;;;;10549859;28;20197;-83
2023/09/02 06:48:32;;;;;;;4.20;3.00;;;16.30;1.00;;;;;;10567363;28;20231;-88
2023/09/02 06:53:53;;;;;;;6.18;3.40;;;16.20;99.90;;;;;;10568042;28;20561;-80
2023/09/02 06:59:14;;;;;;;6.05;3.83;;;16.10;1.00;;;;;;10553568;28;20195;-88
2023/09/02 07:04:35;;;;;;;5.97;4.78;;;16.00;99.70;;;;;;10567935;28;20398;-88
2023/09/02 07:10:30;;;;;;;5.78;3.85;;;15.90;99.90;;;;;;10553221;28;20199;-87
2023/09/02 07:16:01;;;;;;;4.95;3.38;;;15.90;99.90;;;;;;10568027;28;20198;-84
2023/09/02 07:21:23;;;;;;;4.55;3.67;;;16.10;99.90;;;;;;10552345;28;20413;-87
2023/09/02 07:26:44;;;;;;;5.95;3.10;;;16.10;99.90;;;;;;10552618;28;20201;-84
2023/09/02 07:32:05;;;;;;;4.78;3.45;;;16.30;99.90;;;;;;10567090;28;20544;-86
2023/09/02 07:37:26;;;;;;;7.05;3.10;;;16.60;1.00;;;;;;10530189;28;20220;-84
2023/09/02 07:42:50;;;;;;;5.95;3.05;;;17.20;1.00;;;;;;10510153;28;20531;-85
2023/09/02 07:48:11;;;;;;;6.43;2.97;;;18.30;1.00;;;;;;10514082;28;20234;-86
2023/09/02 08:00:28;;;;;;;5.93;2.67;;;20.70;1.00;;;;;;10524143;28;20179;-87
2023/09/02 08:05:49;;;;;;;2.30;1.75;;;21.40;59.20;;;;;;10495090;28;20199;-85
2023/09/02 08:11:12;;;;;;;2.28;1.38;;;22.40;1.00;;;;;;10522489;28;20391;-88
2023/09/02 08:16:33;;;;;;;4.55;1.85;;;23.10;1.00;;;;;;10508659;28;20202;-89
2023/09/02 08:21:54;;;;;;;3.85;1.88;;;24.10;1.00;;;;;;10516653;28;20197;-82
2023/09/02 08:27:15;;;;;;;4.07;2.17;;;24.30;1.00;;;;;;10549666;28;20202;-89
2023/09/02 08:32:36;;;;;;;4.25;2.45;;;24.40;1.00;;;;;;10549664;28;20230;-87
2023/09/02 08:37:58;;;;;;;2.67;1.77;;;24.40;99.90;;;;;;10549384;28;20508;-81
2023/09/02 08:50:39;;;;;;;4.30;2.10;;;24.70;99.90;;;;;;10563898;28;20222;-82
2023/09/02 08:56:00;;;;;;;3.33;1.90;;;24.20;99.90;;;;;;10534270;28;20201;-84
2023/09/02 09:01:23;;;;;;;4.72;2.92;;;24.70;99.90;;;;;;10563311;28;20194;-84
2023/09/02 09:06:45;;;;;;;4.93;1.73;;;24.50;99.90;;;;;;10547025;28;20209;-86
2023/09/02 09:12:08;;;;;;;10.07;2.20;;;24.30;99.90;;;;;;10548507;28;20259;-83
2023/09/02 09:17:32;;;;;;;5.60;1.90;;;24.50;99.90;;;;;;10548848;28;20198;-87
2023/09/02 09:22:53;;;;;;;3.30;2.08;;;25.20;99.90;;;;;;10534091;28;20466;-87
2023/09/02 09:28:15;;;;;;;2.92;1.95;;;26.20;99.90;;;;;;10547680;28;20217;-85
2023/09/02 09:33:36;;;;;;;3.08;1.92;;;26.90;99.90;;;;;;10547541;28;20230;-86
2023/09/02 09:38:59;;;;;;;2.78;1.90;;;;;;;;;;10547097;28;20222;-86
2023/09/02 09:44:20;;;;;;;2.50;1.75;;;26.90;1.00;;;;;;10547426;28;20538;-83
2023/09/02 09:49:41;;;;;;;2.90;2.17;;;26.10;1.00;;;;;;10562324;28;20234;-86
2023/09/02 10:01:24;;;;;;;3.38;2.22;;;27.30;1.00;;;;;;10547188;28;20194;-84
2023/09/02 10:06:46;;;;;;;4.22;1.98;;;27.60;1.00;;;;;;10546682;28;20431;-87
2023/09/02 10:12:18;;;;;;;4.70;1.98;;;27.70;1.00;;;;;;10560694;28;20249;-86
2023/09/02 10:17:43;;;;;;;2.83;1.67;;;28.30;99.90;;;;;;10549069;28;20198;-85
2023/09/02 10:23:12;;;;;;;2.45;1.40;;;27.80;99.90;;;;;;10554602;28;20205;-86
2023/09/02 10:28:38;;;;;;;3.72;1.63;;;27.60;99.90;;;;;;10555088;28;20518;-82
2023/09/02 10:33:59;;;;;;;1.98;1.75;;;28.00;99.90;;;;;;10554870;28;20229;-84
2023/09/02 10:39:38;;;;;;;6.88;2.33;;;28.10;99.90;;;;;;10553762;28;20368;-85
2023/09/02 10:45:00;;;;;;;1.98;1.67;;;26.70;99.90;;;;;;10554490;28;20209;-86
2023/09/02 10:50:23;;;;;;;2.58;1.77;;;25.70;99.90;;;;;;10553418;28;20236;-83
2023/09/02 10:56:01;;;;;;;2.75;1.85;;;26.40;99.90;;;;;;10553466;28;20182;-82
2023/09/02 11:01:24;;;;;;;3.95;1.42;;;27.00;99.90;;;;;;10553046;28;20273;-81
2023/09/02 11:07:19;;;;;;;3.40;1.30;;;27.80;99.90;;;;;;10538706;28;20404;-84
2023/09/02 11:12:59;;;;;;;1.42;1.27;;;28.30;99.90;;;;;;10538947;28;20245;-85
2023/09/02 11:18:32;;;;;;;3.63;1.80;;;28.40;99.90;;;;;;10539040;28;20229;-90
2023/09/02 11:45:14;;;;;;;2.75;1.50;;;27.90;99.90;;;;;;10551670;28;20235;-81
2023/09/02 11:50:40;;;;;;;1.30;1.20;;;27.50;99.90;;;;;;10553662;28;20226;-81
2023/09/02 11:56:01;;;;;;;1.30;1.20;;;27.70;99.90;;;;;;10552342;28;20216;-81
2023/09/02 12:01:22;;;;;;;1.95;1.33;;;28.10;99.90;;;;;;10565363;28;20201;-83
2023/09/02 12:06:43;;;;;;;2.33;1.30;;;28.10;99.90;;;;;;10550419;28;20200;-80
2023/09/02 12:12:07;;;;;;;3.10;1.30;;;28.10;99.90;;;;;;10564727;28;20460;-89
2023/09/02 12:17:29;;;;;;;1.38;1.20;;;28.00;99.90;;;;;;10550578;28;20265;-87
2023/09/02 12:22:51;;;;;;;3.78;1.40;;;27.70;99.90;;;;;;10550235;28;20191;-87
2023/09/02 12:28:15;;;;;;;1.67;1.20;;;27.00;99.90;;;;;;10564210;28;20200;-81
2023/09/02 12:33:36;;;;;;;2.40;1.50;;;27.10;99.90;;;;;;10563671;28;20221;-89
2023/09/02 12:38:58;;;;;;;3.38;1.45;;;26.30;99.90;;;;;;10549208;28;20198;-88
2023/09/02 12:44:22;;;;;;;3.53;1.40;;;26.30;99.90;;;;;;10549577;28;20391;-87
2023/09/02 12:49:44;;;;;;;2.28;1.30;;;25.90;99.90;;;;;;10563025;28;20238;-88
2023/09/02 12:55:06;;;;;;;1.60;1.33;;;25.50;1.00;;;;;;10534593;28;20472;-86
2023/09/02 13:00:29;;;;;;;2.78;1.85;;;24.90;99.90;;;;;;10563935;28;20270;-83
2023/09/02 13:05:50;;;;;;;1.75;1.25;;;25.10;99.90;;;;;;10548119;28;20485;-82
2023/09/02 13:11:50;;;;;;;1.77;1.42;;;25.60;99.90;;;;;;10562438;28;20222;-82
2023/09/02 13:17:11;;;;;;;1.75;1.40;;;25.70;99.90;;;;;;10533522;28;20269;-80
2023/09/02 13:22:38;;;;;;;2.83;1.80;;;25.30;99.90;;;;;;10547637;28;20531;-81
2023/09/02 13:28:00;;;;;;;2.40;1.70;;;25.40;99.90;;;;;;10562884;28;20261;-80
2023/09/02 13:33:21;;;;;;;2.08;1.80;;;24.90;99.90;;;;;;10561096;28;20222;-80
2023/09/02 13:38:42;;;;;;;2.85;1.92;;;24.30;99.90;;;;;;10547009;28;20202;-80
2023/09/02 13:44:03;;;;;;;3.88;2.22;;;23.70;99.90;;;;;;10546790;28;20217;-80
2023/09/02 13:49:25;;;;;;;2.83;1.73;;;23.40;99.90;;;;;;10546282;28;20287;-80
2023/09/02 13:54:46;;;;;;;4.32;1.83;;;23.10;99.90;;;;;;10560979;28;20244;-79
2023/09/02 14:00:29;;;;;;;2.50;1.70;;;23.00;99.90;;;;;;10546710;28;20186;-81
2023/09/02 14:05:52;;;;;;;2.00;1.80;;;23.00;99.90;;;;;;10546429;28;20485;-82
2023/09/02 14:11:16;;;;;;;4.25;1.65;;;22.80;99.90;;;;;;10560257;28;20450;-80
2023/09/02 14:16:37;;;;;;;2.17;1.65;;;23.00;1.00;;;;;;10532056;28;20224;-81
2023/09/02 14:21:59;;;;;;;2.80;1.92;;;23.50;99.90;;;;;;10561628;28;20240;-85
2023/09/02 14:27:20;;;;;;;2.30;1.88;;;23.80;99.90;;;;;;10561899;28;20194;-83
2023/09/02 14:32:41;;;;;;;6.55;2.17;;;23.70;99.90;;;;;;10559962;28;20279;-80
2023/09/02 14:38:02;;;;;;;4.30;2.00;;;23.60;99.90;;;;;;10531586;28;20213;-80
2023/09/02 14:43:24;;;;;;;2.55;1.65;;;23.40;99.90;;;;;;10560107;28;20195;-79
2023/09/02 14:48:45;;;;;;;2.97;1.75;;;23.00;99.90;;;;;;10559856;28;20230;-80
2023/09/02 14:54:06;;;;;;;4.82;2.38;;;22.90;99.90;;;;;;10545273;28;20218;-81
2023/09/02 14:59:28;;;;;;;3.35;2.03;;;22.80;99.90;;;;;;10545464;28;20255;-81
2023/09/02 15:04:50;;;;;;;2.83;1.92;;;22.60;99.90;;;;;;10535457;28;20209;-81
2023/09/02 15:10:26;;;;;;;2.40;1.73;;;22.60;99.90;;;;;;10567218;28;20481;-82
2023/09/02 15:15:47;;;;;;;2.92;1.65;;;22.50;99.90;;;;;;10566701;28;20257;-81
2023/09/02 15:21:09;;;;;;;5.07;2.03;;;22.30;99.90;;;;;;10552509;28;20548;-80
2023/09/02 15:26:33;;;;;;;4.22;1.90;;;22.30;99.90;;;;;;10567477;28;20198;-83
2023/09/02 15:31:53;;;;;;;3.47;2.00;;;22.30;99.90;;;;;;10551666;28;20297;-81
2023/09/02 15:37:35;;;;;;;2.72;2.00;;;22.30;99.90;;;;;;10551624;28;20214;-87
2023/09/02 15:54:51;;;;;;;3.58;2.30;;;21.90;99.90;;;;;;10566267;28;20229;-82
2023/09/02 16:00:12;;;;;;;3.88;2.15;;;21.70;99.90;;;;;;10565195;28;20267;-81
2023/09/02 16:05:34;;;;;;;2.75;2.00;;;21.60;99.90;;;;;;10550679;28;20198;-82
2023/09/02 16:10:55;;;;;;;2.65;1.83;;;21.50;99.90;;;;;;10564773;28;20183;-82
2023/09/02 16:16:17;;;;;;;5.72;2.05;;;21.30;99.90;;;;;;10549463;28;20194;-79
2023/09/02 16:26:57;;;;;;;3.40;2.22;;;21.20;99.90;;;;;;10563789;28;20194;-83
2023/09/02 16:32:20;;;;;;;2.20;1.77;;;21.10;99.90;;;;;;10563728;28;20214;-80
2023/09/02 16:37:43;;;;;;;2.25;1.77;;;20.90;99.90;;;;;;10535193;28;20489;-87
2023/09/02 16:43:05;;;;;;;2.30;2.00;;;20.80;99.90;;;;;;10556025;28;20252;-86
2023/09/02 16:48:26;;;;;;;2.35;1.85;;;20.80;99.90;;;;;;10513950;28;20233;-80
2023/09/02 16:53:47;;;;;;;2.60;1.80;;;20.60;99.90;;;;;;10562775;28;20234;-85
2023/09/02 16:59:09;;;;;;;4.55;2.75;;;20.60;1.00;;;;;;10564202;28;20182;-86
2023/09/02 17:04:31;;;;;;;2.92;2.10;;;20.50;1.00;;;;;;10563325;28;20501;-80
2023/09/02 17:09:52;;;;;;;2.60;2.00;;;20.40;99.90;;;;;;10562920;28;20236;-80
2023/09/02 17:15:16;;;;;;;3.03;2.20;;;20.00;99.90;;;;;;10548114;28;20230;-81
2023/09/02 17:20:39;;;;;;;3.28;2.40;;;19.80;99.90;;;;;;10547651;28;20198;-80
2023/09/02 17:26:00;;;;;;;2.85;2.33;;;19.70;99.90;;;;;;10520098;28;20195;-82
2023/09/02 17:31:22;;;;;;;2.45;2.25;;;19.60;99.90;;;;;;10536248;28;20501;-81
2023/09/02 17:36:44;;;;;;;3.05;2.45;;;19.50;99.90;;;;;;10534785;28;20202;-87
2023/09/02 17:42:05;;;;;;;3.92;2.88;;;19.40;99.90;;;;;;10561652;28;20190;-87
2023/09/02 17:47:26;;;;;;;3.67;3.03;;;19.10;99.90;;;;;;10547361;28;20493;-85
2023/09/02 17:52:47;;;;;;;9.13;6.93;;;19.00;99.90;;;;;;10521720;28;20544;-85
2023/09/02 17:58:08;;;;;;;12.48;10.25;;;18.90;1.00;;;;;;10556745;28;20191;-87
2023/09/02 18:03:30;;;;;;;10.95;7.03;;;;;;;;;;10547360;28;20201;-83
2023/09/02 18:08:51;;;;;;;7.72;5.38;;;18.80;1.00;;;;;;10561812;28;20257;-83
2023/09/02 18:14:18;;;;;;;10.13;5.88;;;18.60;1.00;;;;;;10551069;28;20536;-82
2023/09/02 18:19:40;;;;;;;16.48;9.52;;;18.50;1.00;;;;;;10548995;28;20198;-84
2023/09/02 18:25:02;;;;;;;20.10;10.52;;;18.40;1.00;;;;;;10560528;28;20261;-81
2023/09/02 18:30:23;;;;;;;16.67;10.80;;;18.20;1.00;;;;;;10546145;28;20265;-79
2023/09/02 18:35:44;;;;;;;13.82;9.48;;;18.20;1.00;;;;;;10545977;28;20229;-83
2023/09/02 18:41:05;;;;;;;14.35;9.88;;;18.00;1.00;;;;;;10567945;28;20265;-84
2023/09/02 18:46:26;;;;;;;11.48;9.02;;;17.80;1.00;;;;;;10554121;28;20199;-84
2023/09/02 18:51:47;;;;;;;13.38;9.02;;;17.80;1.00;;;;;;10568062;28;20234;-80
2023/09/02 18:57:09;;;;;;;14.30;8.45;;;17.80;1.00;;;;;;10553241;28;20194;-84
2023/09/02 19:02:30;;;;;;;8.50;6.32;;;17.80;1.00;;;;;;10568003;28;20265;-80
2023/09/02 19:07:51;;;;;;;12.07;8.98;;;17.70;1.00;;;;;;10552990;28;20198;-80
2023/09/02 19:13:12;;;;;;;25.15;17.10;;;17.70;1.00;;;;;;10567146;28;20300;-83
2023/09/02 19:18:33;;;;;;;20.52;15.00;;;17.60;1.00;;;;;;10552888;28;20504;-84
2023/09/02 19:23:54;;;;;;;11.23;8.10;;;17.50;1.00;;;;;;10552443;28;20270;-84
2023/09/02 19:29:16;;;;;;;5.65;3.92;;;17.40;1.00;;;;;;10567449;28;20217;-84
2023/09/02 19:34:37;;;;;;;4.68;3.22;;;17.30;1.00;;;;;;10566502;28;20293;-82
2023/09/02 19:39:58;;;;;;;4.35;3.17;;;17.30;1.00;;;;;;10542362;28;20269;-81
2023/09/02 19:45:21;;;;;;;6.00;3.45;;;17.20;1.00;;;;;;10551904;28;20213;-82
2023/09/02 19:50:45;;;;;;;3.72;2.85;;;17.20;1.00;;;;;;10564172;28;20276;-83
2023/09/02 19:56:06;;;;;;;3.50;2.97;;;17.10;16.70;;;;;;10551419;28;20410;-84
2023/09/02 20:01:29;;;;;;;3.50;2.65;;;17.00;99.90;;;;;;10565498;28;20194;-84
2023/09/02 20:06:50;;;;;;;4.43;3.10;;;16.90;99.90;;;;;;10551127;28;20213;-85
2023/09/02 20:12:11;;;;;;;3.17;2.78;;;16.80;99.90;;;;;;10550709;28;20209;-81
2023/09/02 20:17:58;;;;;;;3.28;2.67;;;16.80;99.90;;;;;;10565837;28;20198;-82
2023/09/02 20:23:20;;;;;;;3.85;2.25;;;16.80;99.90;;;;;;10565815;28;20191;-81
2023/09/02 20:28:43;;;;;;;3.05;2.40;;;16.70;99.90;;;;;;10564676;28;20194;-82
2023/09/02 20:34:05;;;;;;;2.35;2.08;;;16.70;99.90;;;;;;10536004;28;20268;-87
2023/09/02 20:39:26;;;;;;;5.13;3.10;;;16.60;1.00;;;;;;10550048;28;20391;-85
2023/09/02 20:44:49;;;;;;;2.63;2.20;;;16.40;1.00;;;;;;10564283;28;20199;-84
2023/09/02 20:50:11;;;;;;;5.68;3.95;;;16.30;1.00;;;;;;10548593;28;20313;-86
2023/09/02 20:55:32;;;;;;;6.47;4.28;;;16.20;1.00;;;;;;10564417;28;20274;-86
2023/09/02 21:00:53;;;;;;;11.07;7.20;;;16.10;1.00;;;;;;10562654;28;20215;-84
2023/09/02 21:06:14;;;;;;;11.15;6.18;;;16.00;1.00;;;;;;10549193;28;20196;-86
2023/09/02 21:11:35;;;;;;;10.27;5.63;;;15.90;51.60;;;;;;10534598;28;20499;-83
2023/09/02 21:16:58;;;;;;;6.97;5.15;;;;;;;;;;10562495;28;20216;-81
2023/09/02 21:22:19;;;;;;;10.45;6.22;;;15.70;1.00;;;;;;10547613;28;20198;-79
2023/09/02 21:27:40;;;;;;;11.07;6.63;;;15.50;1.00;;;;;;10547879;28;20280;-82
2023/09/02 21:33:04;;;;;;;10.93;6.90;;;15.40;1.00;;;;;;10561745;28;20276;-79
2023/09/02 21:38:25;;;;;;;11.35;7.00;;;15.30;19.50;;;;;;10562024;28;20188;-81
2023/09/02 21:43:46;;;;;;;9.30;7.03;;;15.10;1.00;;;;;;10547473;28;20224;-81
2023/09/02 21:49:07;;;;;;;8.75;6.32;;;15.00;1.00;;;;;;10546411;28;20231;-79
2023/09/02 21:54:29;;;;;;;10.88;6.72;;;14.90;1.00;;;;;;10560914;28;20222;-80
2023/09/02 21:59:51;;;;;;;8.68;6.80;;;14.90;1.00;;;;;;10560895;28;20378;-81
2023/09/02 22:05:12;;;;;;;7.13;5.38;;;14.80;99.90;;;;;;10546512;28;20204;-79
2023/09/02 22:10:33;;;;;;;7.00;5.20;;;15.00;14.60;;;;;;10560834;28;20393;-80
2023/09/02 22:15:55;;;;;;;7.22;4.68;;;15.10;1.00;;;;;;10538584;28;20250;-82
2023/09/02 22:21:16;;;;;;;6.13;4.78;;;15.20;1.00;;;;;;10555244;28;20185;-79
2023/09/02 22:26:37;;;;;;;7.45;4.68;;;15.20;1.00;;;;;;10554528;28;20199;-81
2023/09/02 22:31:58;;;;;;;5.65;4.82;;;15.20;1.00;;;;;;10569609;28;20243;-83
2023/09/02 22:37:20;;;;;;;7.00;5.43;;;15.10;99.90;;;;;;10554336;28;20228;-79
2023/09/02 22:42:41;;;;;;;5.53;4.65;;;15.10;1.00;;;;;;10525864;28;20234;-79
2023/09/02 22:48:03;;;;;;;7.82;5.03;;;15.10;1.00;;;;;;10529356;28;20267;-80
2023/09/02 22:53:24;;;;;;;6.38;4.75;;;15.10;99.90;;;;;;10553573;28;20240;-82
2023/09/02 22:58:46;;;;;;;6.38;3.97;;;15.00;99.90;;;;;;10525621;28;20202;-82
2023/09/02 23:04:06;;;;;;;5.90;4.45;;;15.00;99.90;;;;;;10526625;28;20448;-80
2023/09/02 23:09:28;;;;;;;10.05;5.80;;;14.90;1.00;;;;;;10542306;28;20501;-81
2023/09/02 23:14:50;;;;;;;16.25;6.20;;;14.50;99.90;;;;;;10524799;28;20229;-80
2023/09/02 23:20:12;;;;;;;8.82;6.30;;;14.40;99.90;;;;;;10527748;28;20221;-81
2023/09/02 23:25:33;;;;;;;7.78;5.90;;;14.20;99.90;;;;;;10562829;28;20192;-82
2023/09/02 23:30:57;;;;;;;11.60;6.70;;;14.10;99.90;;;;;;10566132;28;20436;-80
2023/09/02 23:36:19;;;;;;;9.48;6.70;;;14.00;1.00;;;;;;10552025;28;20229;-82
2023/09/02 23:41:40;;;;;;;10.50;7.13;;;13.90;1.00;;;;;;10537494;28;20236;-80
2023/09/02 23:47:01;;;;;;;8.25;6.60;;;13.90;99.90;;;;;;10537514;28;20199;-81
2023/09/02 23:52:22;;;;;;;12.75;8.07;;;13.80;1.00;;;;;;10565547;28;20237;-79
2023/09/02 23:57:44;;;;;;;11.25;7.93;;;13.80;99.90;;;;;;10566707;28;20223;-87
